sensor_id;sensor_type;location;lat;lon;timestamp;pressure;altitude;pressure_sealevel;temperature;humidity
68948;BME280;55996;49.546;7.400;2023-06-04T00:00:43;98811.75;;;12.58;81.34
68948;BME280;55996;49.546;7.400;2023-06-04T00:03:09;98812.53;;;12.60;78.70
68948;BME280;55996;49.546;7.400;2023-06-04T00:05:35;98806.56;;;12.56;79.29
68948;BME280;55996;49.546;7.400;2023-06-04T00:08:00;98797.13;;;12.52;79.43
68948;BME280;55996;49.546;7.400;2023-06-04T00:10:26;98808.50;;;12.51;79.99
68948;BME280;55996;49.546;7.400;2023-06-04T00:12:51;98793.88;;;12.46;81.38
68948;BME280;55996;49.546;7.400;2023-06-04T00:15:17;98798.41;;;12.42;82.89
68948;BME280;55996;49.546;7.400;2023-06-04T00:17:43;98794.13;;;12.39;83.94
68948;BME280;55996;49.546;7.400;2023-06-04T00:20:08;98798.25;;;12.45;83.06
68948;BME280;55996;49.546;7.400;2023-06-04T00:22:34;98801.75;;;12.46;83.27
68948;BME280;55996;49.546;7.400;2023-06-04T00:25:00;98789.06;;;12.35;84.34
68948;BME280;55996;49.546;7.400;2023-06-04T00:27:25;98792.72;;;12.31;83.89
68948;BME280;55996;49.546;7.400;2023-06-04T00:29:51;98812.28;;;12.22;87.77
68948;BME280;55996;49.546;7.400;2023-06-04T00:32:16;98796.53;;;12.22;84.40
68948;BME280;55996;49.546;7.400;2023-06-04T00:34:42;98804.22;;;12.26;84.80
68948;BME280;55996;49.546;7.400;2023-06-04T00:37:07;98803.94;;;12.10;84.17
68948;BME280;55996;49.546;7.400;2023-06-04T00:39:33;98799.44;;;12.14;83.42
68948;BME280;55996;49.546;7.400;2023-06-04T00:41:59;98792.75;;;12.07;83.07
68948;BME280;55996;49.546;7.400;2023-06-04T00:44:25;98802.28;;;12.08;82.73
68948;BME280;55996;49.546;7.400;2023-06-04T00:46:51;98810.28;;;12.05;82.63
68948;BME280;55996;49.546;7.400;2023-06-04T00:49:18;98805.13;;;12.02;83.24
68948;BME280;55996;49.546;7.400;2023-06-04T00:51:44;98812.22;;;12.00;82.92
68948;BME280;55996;49.546;7.400;2023-06-04T00:54:10;98813.06;;;12.00;83.26
68948;BME280;55996;49.546;7.400;2023-06-04T00:56:38;98805.31;;;11.95;81.79
68948;BME280;55996;49.546;7.400;2023-06-04T00:59:07;98810.78;;;11.89;81.62
68948;BME280;55996;49.546;7.400;2023-06-04T01:01:51;98809.19;;;11.85;80.27
68948;BME280;55996;49.546;7.400;2023-06-04T01:06:56;98800.81;;;11.75;81.27
68948;BME280;55996;49.546;7.400;2023-06-04T01:09:26;98806.13;;;11.74;80.27
68948;BME280;55996;49.546;7.400;2023-06-04T01:11:51;98813.81;;;11.53;81.05
68948;BME280;55996;49.546;7.400;2023-06-04T01:14:16;98807.50;;;11.34;81.84
68948;BME280;55996;49.546;7.400;2023-06-04T01:16:48;98819.47;;;11.41;81.61
68948;BME280;55996;49.546;7.400;2023-06-04T01:19:34;98808.91;;;11.44;81.63
68948;BME280;55996;49.546;7.400;2023-06-04T01:25:04;98817.06;;;11.35;80.36
68948;BME280;55996;49.546;7.400;2023-06-04T01:27:29;98808.47;;;11.31;80.33
68948;BME280;55996;49.546;7.400;2023-06-04T01:29:56;98819.13;;;11.26;80.17
68948;BME280;55996;49.546;7.400;2023-06-04T01:32:25;98800.13;;;11.20;80.26
68948;BME280;55996;49.546;7.400;2023-06-04T01:34:51;98799.28;;;11.19;79.95
68948;BME280;55996;49.546;7.400;2023-06-04T01:37:17;98807.72;;;11.27;79.89
68948;BME280;55996;49.546;7.400;2023-06-04T01:39:43;98817.88;;;11.11;80.67
68948;BME280;55996;49.546;7.400;2023-06-04T01:42:09;98817.69;;;11.16;79.87
68948;BME280;55996;49.546;7.400;2023-06-04T01:44:34;98820.38;;;11.14;79.62
68948;BME280;55996;49.546;7.400;2023-06-04T01:47:00;98811.22;;;11.01;79.80
68948;BME280;55996;49.546;7.400;2023-06-04T01:49:25;98811.91;;;11.06;80.37
68948;BME280;55996;49.546;7.400;2023-06-04T01:51:51;98807.28;;;10.88;80.69
68948;BME280;55996;49.546;7.400;2023-06-04T01:54:16;98806.16;;;10.96;79.77
68948;BME280;55996;49.546;7.400;2023-06-04T01:56:43;98798.66;;;10.86;79.43
68948;BME280;55996;49.546;7.400;2023-06-04T01:59:08;98815.03;;;10.91;80.68
68948;BME280;55996;49.546;7.400;2023-06-04T02:01:37;98814.78;;;10.98;80.01
68948;BME280;55996;49.546;7.400;2023-06-04T02:04:03;98812.56;;;10.86;80.50
68948;BME280;55996;49.546;7.400;2023-06-04T02:06:28;98801.19;;;10.87;80.65
68948;BME280;55996;49.546;7.400;2023-06-04T02:08:55;98808.16;;;10.88;80.24
68948;BME280;55996;49.546;7.400;2023-06-04T02:11:21;98806.44;;;10.87;80.26
68948;BME280;55996;49.546;7.400;2023-06-04T02:13:46;98812.75;;;10.80;80.45
68948;BME280;55996;49.546;7.400;2023-06-04T02:16:11;98810.28;;;10.75;80.38
68948;BME280;55996;49.546;7.400;2023-06-04T02:18:37;98819.81;;;10.78;80.61
68948;BME280;55996;49.546;7.400;2023-06-04T02:21:02;98805.22;;;10.71;80.99
68948;BME280;55996;49.546;7.400;2023-06-04T02:23:28;98809.44;;;10.75;80.81
68948;BME280;55996;49.546;7.400;2023-06-04T02:25:53;98814.81;;;10.70;79.93
68948;BME280;55996;49.546;7.400;2023-06-04T02:28:19;98818.44;;;10.66;80.52
68948;BME280;55996;49.546;7.400;2023-06-04T02:30:45;98815.75;;;10.68;80.44
68948;BME280;55996;49.546;7.400;2023-06-04T02:33:14;98807.84;;;10.71;79.42
68948;BME280;55996;49.546;7.400;2023-06-04T02:35:40;98803.06;;;10.55;80.38
68948;BME280;55996;49.546;7.400;2023-06-04T02:38:06;98805.75;;;10.54;80.64
68948;BME280;55996;49.546;7.400;2023-06-04T02:40:32;98811.09;;;10.49;81.58
68948;BME280;55996;49.546;7.400;2023-06-04T02:42:58;98805.03;;;10.48;81.53
68948;BME280;55996;49.546;7.400;2023-06-04T02:45:24;98818.91;;;10.51;80.88
68948;BME280;55996;49.546;7.400;2023-06-04T02:47:49;98816.34;;;10.49;81.00
68948;BME280;55996;49.546;7.400;2023-06-04T02:50:15;98796.78;;;10.32;81.75
68948;BME280;55996;49.546;7.400;2023-06-04T02:52:41;98811.63;;;10.30;82.15
68948;BME280;55996;49.546;7.400;2023-06-04T02:55:08;98810.53;;;10.39;81.12
68948;BME280;55996;49.546;7.400;2023-06-04T02:57:34;98807.31;;;10.29;82.06
68948;BME280;55996;49.546;7.400;2023-06-04T03:00:00;98819.41;;;10.33;81.45
68948;BME280;55996;49.546;7.400;2023-06-04T03:02:26;98810.03;;;10.26;82.31
68948;BME280;55996;49.546;7.400;2023-06-04T03:04:53;98818.56;;;10.31;81.79
68948;BME280;55996;49.546;7.400;2023-06-04T03:07:20;98815.88;;;10.34;81.00
68948;BME280;55996;49.546;7.400;2023-06-04T03:09:48;98815.00;;;10.34;81.64
68948;BME280;55996;49.546;7.400;2023-06-04T03:12:13;98814.25;;;10.30;82.20
68948;BME280;55996;49.546;7.400;2023-06-04T03:14:39;98816.84;;;10.30;81.39
68948;BME280;55996;49.546;7.400;2023-06-04T03:17:05;98821.28;;;10.28;81.17
68948;BME280;55996;49.546;7.400;2023-06-04T03:19:40;98823.09;;;10.26;80.83
68948;BME280;55996;49.546;7.400;2023-06-04T03:22:06;98823.34;;;10.17;82.05
68948;BME280;55996;49.546;7.400;2023-06-04T03:24:38;98806.94;;;10.13;82.44
68948;BME280;55996;49.546;7.400;2023-06-04T03:27:05;98825.06;;;10.18;81.87
68948;BME280;55996;49.546;7.400;2023-06-04T03:29:34;98814.88;;;10.09;82.17
68948;BME280;55996;49.546;7.400;2023-06-04T03:32:01;98816.50;;;10.13;82.47
68948;BME280;55996;49.546;7.400;2023-06-04T03:34:27;98830.47;;;10.12;82.42
68948;BME280;55996;49.546;7.400;2023-06-04T03:36:55;98819.25;;;10.08;83.50
68948;BME280;55996;49.546;7.400;2023-06-04T03:39:21;98813.88;;;10.13;82.92
68948;BME280;55996;49.546;7.400;2023-06-04T03:41:47;98809.66;;;10.09;81.77
68948;BME280;55996;49.546;7.400;2023-06-04T03:44:13;98821.13;;;10.03;82.87
68948;BME280;55996;49.546;7.400;2023-06-04T03:46:39;98818.47;;;10.05;82.96
68948;BME280;55996;49.546;7.400;2023-06-04T03:49:05;98803.91;;;9.97;81.64
68948;BME280;55996;49.546;7.400;2023-06-04T03:51:30;98821.84;;;10.10;82.36
68948;BME280;55996;49.546;7.400;2023-06-04T03:53:58;98818.53;;;10.03;82.91
68948;BME280;55996;49.546;7.400;2023-06-04T03:56:23;98820.97;;;10.09;82.95
68948;BME280;55996;49.546;7.400;2023-06-04T03:58:49;98811.56;;;10.04;83.24
68948;BME280;55996;49.546;7.400;2023-06-04T04:01:15;98823.84;;;10.00;84.06
68948;BME280;55996;49.546;7.400;2023-06-04T04:03:42;98817.63;;;10.04;83.69
68948;BME280;55996;49.546;7.400;2023-06-04T04:06:09;98810.63;;;10.05;85.50
68948;BME280;55996;49.546;7.400;2023-06-04T04:08:35;98821.09;;;10.05;84.83
68948;BME280;55996;49.546;7.400;2023-06-04T04:11:00;98826.31;;;10.05;85.62
68948;BME280;55996;49.546;7.400;2023-06-04T04:13:26;98824.28;;;10.14;85.05
68948;BME280;55996;49.546;7.400;2023-06-04T04:15:52;98827.78;;;10.15;85.00
68948;BME280;55996;49.546;7.400;2023-06-04T04:18:19;98824.47;;;10.08;86.20
68948;BME280;55996;49.546;7.400;2023-06-04T04:20:45;98830.28;;;10.18;84.92
68948;BME280;55996;49.546;7.400;2023-06-04T04:23:11;98830.22;;;10.21;84.42
68948;BME280;55996;49.546;7.400;2023-06-04T04:25:37;98836.16;;;10.26;86.81
68948;BME280;55996;49.546;7.400;2023-06-04T04:28:04;98840.19;;;10.38;85.06
68948;BME280;55996;49.546;7.400;2023-06-04T04:30:33;98848.59;;;10.48;85.03
68948;BME280;55996;49.546;7.400;2023-06-04T04:33:03;98843.28;;;10.51;84.70
68948;BME280;55996;49.546;7.400;2023-06-04T04:35:31;98843.38;;;10.48;86.31
68948;BME280;55996;49.546;7.400;2023-06-04T04:38:01;98839.59;;;10.58;85.82
68948;BME280;55996;49.546;7.400;2023-06-04T04:40:30;98832.50;;;10.62;84.95
68948;BME280;55996;49.546;7.400;2023-06-04T04:42:56;98841.66;;;10.75;84.64
68948;BME280;55996;49.546;7.400;2023-06-04T04:45:22;98832.06;;;10.76;85.13
68948;BME280;55996;49.546;7.400;2023-06-04T04:47:47;98842.22;;;10.85;85.36
68948;BME280;55996;49.546;7.400;2023-06-04T04:50:13;98834.31;;;10.88;86.72
68948;BME280;55996;49.546;7.400;2023-06-04T04:52:38;98831.28;;;11.01;86.78
68948;BME280;55996;49.546;7.400;2023-06-04T04:55:04;98832.94;;;11.03;86.30
68948;BME280;55996;49.546;7.400;2023-06-04T04:57:30;98821.44;;;11.09;87.40
68948;BME280;55996;49.546;7.400;2023-06-04T04:59:55;98829.88;;;11.17;89.00
68948;BME280;55996;49.546;7.400;2023-06-04T05:02:21;98834.00;;;11.24;87.30
68948;BME280;55996;49.546;7.400;2023-06-04T05:04:46;98843.09;;;11.39;87.79
68948;BME280;55996;49.546;7.400;2023-06-04T05:07:12;98847.84;;;11.53;86.50
68948;BME280;55996;49.546;7.400;2023-06-04T05:09:37;98844.06;;;11.62;86.33
68948;BME280;55996;49.546;7.400;2023-06-04T05:12:03;98850.44;;;11.80;86.89
68948;BME280;55996;49.546;7.400;2023-06-04T05:14:29;98837.53;;;11.99;86.55
68948;BME280;55996;49.546;7.400;2023-06-04T05:16:55;98839.72;;;12.11;85.69
68948;BME280;55996;49.546;7.400;2023-06-04T05:19:23;98837.88;;;12.37;83.98
68948;BME280;55996;49.546;7.400;2023-06-04T05:21:50;98836.59;;;12.49;82.95
68948;BME280;55996;49.546;7.400;2023-06-04T05:24:16;98826.75;;;12.54;77.77
68948;BME280;55996;49.546;7.400;2023-06-04T05:26:44;98824.91;;;12.56;81.69
68948;BME280;55996;49.546;7.400;2023-06-04T05:29:09;98843.53;;;12.72;83.27
68948;BME280;55996;49.546;7.400;2023-06-04T05:31:34;98837.19;;;12.78;81.01
68948;BME280;55996;49.546;7.400;2023-06-04T05:34:02;98838.41;;;12.91;78.98
68948;BME280;55996;49.546;7.400;2023-06-04T05:36:30;98845.97;;;12.99;75.55
68948;BME280;55996;49.546;7.400;2023-06-04T05:38:56;98842.84;;;13.12;77.03
68948;BME280;55996;49.546;7.400;2023-06-04T05:41:25;98832.69;;;13.24;77.57
68948;BME280;55996;49.546;7.400;2023-06-04T05:43:51;98836.44;;;13.41;77.23
68948;BME280;55996;49.546;7.400;2023-06-04T05:46:16;98836.03;;;13.50;71.03
68948;BME280;55996;49.546;7.400;2023-06-04T05:48:42;98831.56;;;13.73;59.64
68948;BME280;55996;49.546;7.400;2023-06-04T05:51:07;98845.59;;;13.93;62.28
68948;BME280;55996;49.546;7.400;2023-06-04T05:53:33;98841.50;;;14.06;63.58
68948;BME280;55996;49.546;7.400;2023-06-04T05:55:58;98836.56;;;14.19;59.39
68948;BME280;55996;49.546;7.400;2023-06-04T05:58:24;98834.03;;;14.35;64.12
68948;BME280;55996;49.546;7.400;2023-06-04T06:00:50;98843.03;;;14.50;65.61
68948;BME280;55996;49.546;7.400;2023-06-04T06:03:15;98837.13;;;14.64;57.37
68948;BME280;55996;49.546;7.400;2023-06-04T06:05:44;98845.50;;;14.91;59.32
68948;BME280;55996;49.546;7.400;2023-06-04T06:08:10;98849.00;;;15.09;59.88
68948;BME280;55996;49.546;7.400;2023-06-04T06:10:35;98840.56;;;15.38;53.93
68948;BME280;55996;49.546;7.400;2023-06-04T06:13:00;98856.25;;;15.58;51.25
68948;BME280;55996;49.546;7.400;2023-06-04T06:15:26;98856.72;;;15.84;52.12
68948;BME280;55996;49.546;7.400;2023-06-04T06:17:52;98857.81;;;16.13;52.81
68948;BME280;55996;49.546;7.400;2023-06-04T06:20:18;98854.13;;;16.34;50.07
68948;BME280;55996;49.546;7.400;2023-06-04T06:22:44;98856.59;;;16.53;50.24
68948;BME280;55996;49.546;7.400;2023-06-04T06:25:10;98844.34;;;16.68;49.30
68948;BME280;55996;49.546;7.400;2023-06-04T06:27:38;98859.75;;;16.59;48.73
68948;BME280;55996;49.546;7.400;2023-06-04T06:30:06;98869.00;;;16.51;48.52
68948;BME280;55996;49.546;7.400;2023-06-04T06:32:31;98869.72;;;16.70;48.37
68948;BME280;55996;49.546;7.400;2023-06-04T06:34:57;98864.63;;;16.67;48.00
68948;BME280;55996;49.546;7.400;2023-06-04T06:37:22;98871.16;;;16.76;47.78
68948;BME280;55996;49.546;7.400;2023-06-04T06:39:48;98859.84;;;16.74;48.77
68948;BME280;55996;49.546;7.400;2023-06-04T06:42:13;98871.50;;;16.70;47.75
68948;BME280;55996;49.546;7.400;2023-06-04T06:44:39;98881.75;;;16.26;47.64
68948;BME280;55996;49.546;7.400;2023-06-04T06:47:04;98862.50;;;16.24;48.85
68948;BME280;55996;49.546;7.400;2023-06-04T06:49:30;98881.94;;;16.39;51.42
68948;BME280;55996;49.546;7.400;2023-06-04T06:51:55;98877.88;;;16.16;49.09
68948;BME280;55996;49.546;7.400;2023-06-04T06:54:21;98880.31;;;16.37;51.49
68948;BME280;55996;49.546;7.400;2023-06-04T06:56:48;98871.56;;;16.36;48.20
68948;BME280;55996;49.546;7.400;2023-06-04T06:59:14;98878.44;;;17.04;51.94
68948;BME280;55996;49.546;7.400;2023-06-04T07:01:40;98878.22;;;17.23;47.72
68948;BME280;55996;49.546;7.400;2023-06-04T07:04:05;98869.00;;;17.61;48.27
68948;BME280;55996;49.546;7.400;2023-06-04T07:06:31;98865.44;;;17.77;47.67
68948;BME280;55996;49.546;7.400;2023-06-04T07:08:57;98865.13;;;18.12;47.57
68948;BME280;55996;49.546;7.400;2023-06-04T07:11:23;98867.19;;;18.64;47.27
68948;BME280;55996;49.546;7.400;2023-06-04T07:13:48;98870.16;;;18.73;48.00
68948;BME280;55996;49.546;7.400;2023-06-04T07:16:13;98877.81;;;18.77;45.12
68948;BME280;55996;49.546;7.400;2023-06-04T07:18:39;98865.47;;;18.49;45.75
68948;BME280;55996;49.546;7.400;2023-06-04T07:21:07;98873.91;;;18.27;47.97
68948;BME280;55996;49.546;7.400;2023-06-04T07:23:32;98876.06;;;18.34;48.05
68948;BME280;55996;49.546;7.400;2023-06-04T07:25:58;98874.78;;;18.27;47.21
68948;BME280;55996;49.546;7.400;2023-06-04T07:28:23;98883.47;;;18.29;46.10
68948;BME280;55996;49.546;7.400;2023-06-04T07:30:50;98872.63;;;18.76;47.43
68948;BME280;55996;49.546;7.400;2023-06-04T07:33:15;98879.69;;;19.04;44.20
68948;BME280;55996;49.546;7.400;2023-06-04T07:35:41;98871.75;;;18.90;45.26
68948;BME280;55996;49.546;7.400;2023-06-04T07:38:06;98889.41;;;19.03;44.71
68948;BME280;55996;49.546;7.400;2023-06-04T07:40:32;98873.09;;;19.77;47.75
68948;BME280;55996;49.546;7.400;2023-06-04T07:42:57;98873.13;;;20.16;42.99
68948;BME280;55996;49.546;7.400;2023-06-04T07:45:23;98873.94;;;20.42;42.71
68948;BME280;55996;49.546;7.400;2023-06-04T07:47:49;98870.03;;;20.85;45.19
68948;BME280;55996;49.546;7.400;2023-06-04T07:50:14;98872.31;;;21.03;42.51
68948;BME280;55996;49.546;7.400;2023-06-04T07:52:40;98864.81;;;21.56;41.47
68948;BME280;55996;49.546;7.400;2023-06-04T07:55:06;98867.63;;;21.42;40.81
68948;BME280;55996;49.546;7.400;2023-06-04T07:57:31;98865.81;;;21.67;43.79
68948;BME280;55996;49.546;7.400;2023-06-04T07:59:57;98867.75;;;21.65;41.41
68948;BME280;55996;49.546;7.400;2023-06-04T08:02:23;98870.97;;;22.15;40.25
68948;BME280;55996;49.546;7.400;2023-06-04T08:04:48;98858.34;;;20.88;40.99
68948;BME280;55996;49.546;7.400;2023-06-04T08:07:14;98855.78;;;21.35;42.31
68948;BME280;55996;49.546;7.400;2023-06-04T08:09:39;98868.47;;;21.07;40.83
68948;BME280;55996;49.546;7.400;2023-06-04T08:12:05;98862.31;;;21.42;39.72
68948;BME280;55996;49.546;7.400;2023-06-04T08:14:31;98861.88;;;21.95;39.00
68948;BME280;55996;49.546;7.400;2023-06-04T08:16:57;98851.09;;;21.97;40.27
68948;BME280;55996;49.546;7.400;2023-06-04T08:19:23;98850.00;;;21.88;38.33
68948;BME280;55996;49.546;7.400;2023-06-04T08:21:49;98853.38;;;21.67;39.92
68948;BME280;55996;49.546;7.400;2023-06-04T08:24:15;98850.78;;;22.35;38.83
68948;BME280;55996;49.546;7.400;2023-06-04T08:26:40;98852.84;;;22.20;37.93
68948;BME280;55996;49.546;7.400;2023-06-04T08:29:07;98851.88;;;22.44;38.30
68948;BME280;55996;49.546;7.400;2023-06-04T08:31:33;98848.25;;;22.56;37.95
68948;BME280;55996;49.546;7.400;2023-06-04T08:33:58;98852.59;;;22.46;38.59
68948;BME280;55996;49.546;7.400;2023-06-04T08:36:24;98861.88;;;22.06;38.58
68948;BME280;55996;49.546;7.400;2023-06-04T08:38:50;98867.38;;;22.50;38.67
68948;BME280;55996;49.546;7.400;2023-06-04T08:41:34;98865.16;;;22.21;38.96
68948;BME280;55996;49.546;7.400;2023-06-04T08:44:02;98858.34;;;21.72;40.48
68948;BME280;55996;49.546;7.400;2023-06-04T08:46:31;98869.94;;;21.59;40.69
68948;BME280;55996;49.546;7.400;2023-06-04T08:49:00;98867.69;;;21.89;40.61
68948;BME280;55996;49.546;7.400;2023-06-04T08:51:32;98875.06;;;21.97;39.89
68948;BME280;55996;49.546;7.400;2023-06-04T08:53:59;98878.03;;;21.34;39.42
68948;BME280;55996;49.546;7.400;2023-06-04T08:56:25;98883.84;;;21.39;40.90
68948;BME280;55996;49.546;7.400;2023-06-04T08:58:51;98880.47;;;21.48;40.14
68948;BME280;55996;49.546;7.400;2023-06-04T09:01:18;98879.88;;;21.20;41.05
68948;BME280;55996;49.546;7.400;2023-06-04T09:03:44;98880.28;;;21.27;40.51
68948;BME280;55996;49.546;7.400;2023-06-04T09:06:10;98880.09;;;21.66;41.27
68948;BME280;55996;49.546;7.400;2023-06-04T09:08:38;98865.00;;;21.89;39.90
68948;BME280;55996;49.546;7.400;2023-06-04T09:11:08;98871.91;;;21.91;39.78
68948;BME280;55996;49.546;7.400;2023-06-04T09:13:35;98875.00;;;22.44;40.22
68948;BME280;55996;49.546;7.400;2023-06-04T09:16:01;98871.50;;;22.43;39.72
68948;BME280;55996;49.546;7.400;2023-06-04T09:18:27;98872.72;;;22.39;38.68
68948;BME280;55996;49.546;7.400;2023-06-04T09:21:20;98871.25;;;22.58;39.11
68948;BME280;55996;49.546;7.400;2023-06-04T09:23:47;98872.44;;;22.53;38.33
68948;BME280;55996;49.546;7.400;2023-06-04T09:26:13;98865.44;;;22.64;38.52
68948;BME280;55996;49.546;7.400;2023-06-04T09:28:41;98876.28;;;22.83;40.03
68948;BME280;55996;49.546;7.400;2023-06-04T09:31:17;98870.75;;;22.52;39.91
68948;BME280;55996;49.546;7.400;2023-06-04T09:33:51;98879.34;;;22.56;39.61
68948;BME280;55996;49.546;7.400;2023-06-04T09:36:17;98862.03;;;22.62;39.22
68948;BME280;55996;49.546;7.400;2023-06-04T09:38:43;98866.28;;;23.08;39.23
68948;BME280;55996;49.546;7.400;2023-06-04T09:41:16;98866.50;;;23.28;38.16
68948;BME280;55996;49.546;7.400;2023-06-04T09:43:47;98864.56;;;23.51;38.07
68948;BME280;55996;49.546;7.400;2023-06-04T09:46:17;98865.56;;;23.17;36.70
68948;BME280;55996;49.546;7.400;2023-06-04T09:48:44;98873.34;;;22.98;36.48
68948;BME280;55996;49.546;7.400;2023-06-04T09:51:11;98868.28;;;23.60;38.34
68948;BME280;55996;49.546;7.400;2023-06-04T09:53:37;98863.91;;;23.80;39.17
68948;BME280;55996;49.546;7.400;2023-06-04T09:56:04;98857.13;;;24.18;37.05
68948;BME280;55996;49.546;7.400;2023-06-04T09:58:32;98864.91;;;23.79;36.61
68948;BME280;55996;49.546;7.400;2023-06-04T10:00:59;98865.56;;;23.71;37.65
68948;BME280;55996;49.546;7.400;2023-06-04T10:03:31;98865.66;;;23.27;35.33
68948;BME280;55996;49.546;7.400;2023-06-04T10:06:00;98850.84;;;23.56;37.79
68948;BME280;55996;49.546;7.400;2023-06-04T10:08:27;98851.69;;;23.56;36.21
68948;BME280;55996;49.546;7.400;2023-06-04T10:10:58;98857.53;;;23.71;36.44
68948;BME280;55996;49.546;7.400;2023-06-04T10:13:31;98866.50;;;23.28;36.63
68948;BME280;55996;49.546;7.400;2023-06-04T10:16:01;98869.09;;;23.39;36.81
68948;BME280;55996;49.546;7.400;2023-06-04T10:18:27;98860.19;;;23.29;37.15
68948;BME280;55996;49.546;7.400;2023-06-04T10:20:57;98860.34;;;23.91;35.87
68948;BME280;55996;49.546;7.400;2023-06-04T10:23:23;98865.00;;;24.20;36.07
68948;BME280;55996;49.546;7.400;2023-06-04T10:25:50;98860.47;;;23.89;34.06
68948;BME280;55996;49.546;7.400;2023-06-04T10:28:18;98861.00;;;23.62;34.45
68948;BME280;55996;49.546;7.400;2023-06-04T10:30:45;98859.13;;;24.26;35.54
68948;BME280;55996;49.546;7.400;2023-06-04T10:33:11;98869.38;;;24.52;35.27
68948;BME280;55996;49.546;7.400;2023-06-04T10:35:37;98852.22;;;23.71;36.02
68948;BME280;55996;49.546;7.400;2023-06-04T10:38:10;98864.59;;;24.55;36.30
68948;BME280;55996;49.546;7.400;2023-06-04T10:40:37;98853.59;;;24.99;34.44
68948;BME280;55996;49.546;7.400;2023-06-04T10:43:07;98861.84;;;24.67;34.37
68948;BME280;55996;49.546;7.400;2023-06-04T10:45:32;98841.75;;;25.02;35.24
68948;BME280;55996;49.546;7.400;2023-06-04T10:48:03;98852.72;;;24.38;34.39
68948;BME280;55996;49.546;7.400;2023-06-04T10:50:33;98844.41;;;24.31;35.09
68948;BME280;55996;49.546;7.400;2023-06-04T10:52:59;98844.97;;;24.86;34.78
68948;BME280;55996;49.546;7.400;2023-06-04T10:55:29;98854.34;;;25.21;34.85
68948;BME280;55996;49.546;7.400;2023-06-04T10:57:59;98857.72;;;24.22;34.46
68948;BME280;55996;49.546;7.400;2023-06-04T11:00:44;98855.50;;;24.68;36.37
68948;BME280;55996;49.546;7.400;2023-06-04T11:03:12;98851.03;;;24.88;34.46
68948;BME280;55996;49.546;7.400;2023-06-04T11:05:42;98861.75;;;24.97;34.74
68948;BME280;55996;49.546;7.400;2023-06-04T11:08:09;98849.53;;;25.34;35.52
68948;BME280;55996;49.546;7.400;2023-06-04T11:10:41;98854.56;;;24.98;33.93
68948;BME280;55996;49.546;7.400;2023-06-04T11:13:07;98847.44;;;25.28;34.13
68948;BME280;55996;49.546;7.400;2023-06-04T11:15:45;98847.53;;;25.75;34.32
68948;BME280;55996;49.546;7.400;2023-06-04T11:18:18;98846.16;;;25.71;32.60
68948;BME280;55996;49.546;7.400;2023-06-04T11:20:46;98845.44;;;25.69;33.18
68948;BME280;55996;49.546;7.400;2023-06-04T11:23:13;98840.00;;;26.08;32.92
68948;BME280;55996;49.546;7.400;2023-06-04T11:25:38;98834.91;;;25.38;31.83
68948;BME280;55996;49.546;7.400;2023-06-04T11:28:04;98840.66;;;25.14;33.14
68948;BME280;55996;49.546;7.400;2023-06-04T11:30:30;98840.09;;;25.69;32.59
68948;BME280;55996;49.546;7.400;2023-06-04T11:33:05;98849.53;;;25.24;32.51
68948;BME280;55996;49.546;7.400;2023-06-04T11:35:31;98842.28;;;25.93;34.49
68948;BME280;55996;49.546;7.400;2023-06-04T11:38:05;98842.53;;;25.53;32.20
68948;BME280;55996;49.546;7.400;2023-06-04T11:40:30;98834.91;;;25.58;31.88
68948;BME280;55996;49.546;7.400;2023-06-04T11:42:56;98839.41;;;25.48;31.68
68948;BME280;55996;49.546;7.400;2023-06-04T11:45:22;98840.25;;;25.19;32.25
68948;BME280;55996;49.546;7.400;2023-06-04T11:47:49;98829.69;;;25.27;32.67
68948;BME280;55996;49.546;7.400;2023-06-04T11:50:15;98837.38;;;25.89;33.32
68948;BME280;55996;49.546;7.400;2023-06-04T11:52:41;98827.03;;;26.04;31.09
68948;BME280;55996;49.546;7.400;2023-06-04T11:55:09;98823.66;;;25.92;31.73
68948;BME280;55996;49.546;7.400;2023-06-04T11:57:36;98851.78;;;25.29;31.35
68948;BME280;55996;49.546;7.400;2023-06-04T12:00:02;98837.78;;;25.84;31.03
68948;BME280;55996;49.546;7.400;2023-06-04T12:02:30;98829.25;;;25.61;31.49
68948;BME280;55996;49.546;7.400;2023-06-04T12:04:55;98841.09;;;25.49;32.03
68948;BME280;55996;49.546;7.400;2023-06-04T12:07:21;98834.59;;;25.61;31.94
68948;BME280;55996;49.546;7.400;2023-06-04T12:09:49;98829.97;;;25.53;31.25
68948;BME280;55996;49.546;7.400;2023-06-04T12:12:20;98822.66;;;26.03;30.88
68948;BME280;55996;49.546;7.400;2023-06-04T12:14:46;98819.22;;;26.48;32.62
68948;BME280;55996;49.546;7.400;2023-06-04T12:17:12;98815.22;;;26.62;31.29
68948;BME280;55996;49.546;7.400;2023-06-04T12:19:48;98819.88;;;26.60;30.87
68948;BME280;55996;49.546;7.400;2023-06-04T12:22:13;98820.25;;;27.29;30.27
68948;BME280;55996;49.546;7.400;2023-06-04T12:27:22;98822.16;;;27.19;30.41
68948;BME280;55996;49.546;7.400;2023-06-04T12:30:02;98824.28;;;26.79;30.27
68948;BME280;55996;49.546;7.400;2023-06-04T12:32:28;98827.00;;;27.15;30.26
68948;BME280;55996;49.546;7.400;2023-06-04T12:34:54;98822.59;;;27.32;28.97
68948;BME280;55996;49.546;7.400;2023-06-04T12:37:23;98818.03;;;27.06;30.06
68948;BME280;55996;49.546;7.400;2023-06-04T12:39:51;98815.41;;;27.33;29.83
68948;BME280;55996;49.546;7.400;2023-06-04T12:42:17;98814.22;;;27.72;28.53
68948;BME280;55996;49.546;7.400;2023-06-04T12:44:44;98799.56;;;27.92;29.42
68948;BME280;55996;49.546;7.400;2023-06-04T12:47:10;98799.41;;;26.87;29.36
68948;BME280;55996;49.546;7.400;2023-06-04T12:49:36;98793.88;;;27.25;30.45
68948;BME280;55996;49.546;7.400;2023-06-04T12:52:02;98812.09;;;27.57;28.69
68948;BME280;55996;49.546;7.400;2023-06-04T12:54:27;98800.38;;;28.19;30.57
68948;BME280;55996;49.546;7.400;2023-06-04T12:56:53;98810.97;;;27.86;29.31
68948;BME280;55996;49.546;7.400;2023-06-04T12:59:22;98810.81;;;27.43;29.78
68948;BME280;55996;49.546;7.400;2023-06-04T13:01:47;98807.03;;;27.80;29.91
68948;BME280;55996;49.546;7.400;2023-06-04T13:04:13;98811.16;;;27.66;28.82
68948;BME280;55996;49.546;7.400;2023-06-04T13:06:38;98801.72;;;27.89;29.88